Terminal Aerodrome Forecast
Issued by NWS

Current Version | Previous Version | Graphics & Text | Print | Product List | Glossary On
Versions: 1 2 3 4 5 6 7 8 9 10 11 12 13 14 15 16 17 18 19 20 21 22 23 24 25 26
000
FTUS41 KRLX 130200 AAA
TAFCKB
TAF AMD
KCKB 130225Z 1302/1324 03003KT P6SM SCT025 OVC100
     FM130300 VRB03KT P6SM BKN035
     FM130800 00000KT 6SM -SHRA BR OVC035
     FM131000 VRB03KT 4SM -SHRA BR OVC025
     FM131200 28004KT 4SM -SHRA BR OVC010
     FM131300 28004KT 5SM -SHRA BR OVC015
     FM131600 28005KT P6SM BKN025
     FM132000 30006KT P6SM OVC035=

USA.gov is the U.S. government's official web portal to all federal, state and local government web resources and services.